Loachapoka, Alabama
Current Conditions -  °F | °C
As of 4:55 AM on Thursday 27 Nov 2014 (Local Time) from KAUO Reporting Station
Clear Clear  
Wind Chill: 34°   Ceiling: Unl
Heat Index: 37°   Visibility: 10mi
Dew Point: 27°   Wind: 5mph
Humidity: 65%   Direction: 310°NW
Pressure: 30.24"   Gusts: NA
Location:  32.6°N, 85.59°W
Report Text: KAUO 271055Z AUTO 31004KT 10SM CLR 03/M03 A3024 RMK AO1
Loading
Personal Weather Stations






























Interactive Weather Map New forecast layout! Learn more

10-Day Weather Forecast

Advertisements
Track Severe Weather on mobile